Time,TemperatureF,DewpointF,PressureIn,WindDirection,WindDirectionDegrees,WindSpeedMPH,WindSpeedGustMPH,Humidity,HourlyPrecipIn,Conditions,Clouds,dailyrainin,SolarRadiationWatts/m^2,SoftwareType,DateUTC
2013-06-18 00:03:00,55.6,51.0,29.97,North,5,0.0,0.0,84,0.00,,,0.00,0,weatherlink.com 1.10,2013-06-18 07:03:00,
2013-06-18 00:18:00,54.1,50.0,29.97,North,5,0.0,0.0,87,0.00,,,0.00,0,weatherlink.com 1.10,2013-06-18 07:18:00,
2013-06-18 00:33:00,53.1,50.0,29.97,North,5,0.0,0.0,89,0.00,,,0.00,0,weatherlink.com 1.10,2013-06-18 07:33:00,
2013-06-18 00:48:00,52.7,50.0,29.97,North,5,0.0,0.0,90,0.00,,,0.00,0,weatherlink.com 1.10,2013-06-18 07:48:00,
2013-06-18 01:03:00,52.2,49.0,29.96,North,5,0.0,0.0,90,0.00,,,0.00,0,weatherlink.com 1.10,2013-06-18 08:03:00,
2013-06-18 01:18:00,51.7,50.0,29.96,North,5,0.0,0.0,92,0.00,,,0.00,0,weatherlink.com 1.10,2013-06-18 08:18:00,
2013-06-18 01:33:00,52.0,50.0,29.96,North,5,0.0,0.0,92,0.00,,,0.00,0,weatherlink.com 1.10,2013-06-18 08:33:00,
2013-06-18 01:48:00,53.0,51.0,29.96,North,5,0.0,0.0,92,0.00,,,0.00,0,weatherlink.com 1.10,2013-06-18 08:48:00,
2013-06-18 02:03:00,53.6,51.0,29.96,North,5,0.0,0.0,90,0.00,,,0.00,0,weatherlink.com 1.10,2013-06-18 09:03:00,
2013-06-18 02:18:00,53.9,51.0,29.96,North,5,0.0,0.0,89,0.00,,,0.00,0,weatherlink.com 1.10,2013-06-18 09:18:00,
2013-06-18 02:33:00,53.7,50.0,29.96,North,5,0.0,0.0,88,0.00,,,0.00,0,weatherlink.com 1.10,2013-06-18 09:33:00,
2013-06-18 02:48:00,53.6,50.0,29.96,North,349,0.0,0.0,88,0.00,,,0.00,0,weatherlink.com 1.10,2013-06-18 09:48:00,
2013-06-18 03:03:00,53.6,50.0,29.96,North,5,0.0,0.0,88,0.00,,,0.00,0,weatherlink.com 1.10,2013-06-18 10:03:00,
2013-06-18 03:18:00,53.3,50.0,29.96,North,349,0.0,0.0,88,0.00,,,0.00,0,weatherlink.com 1.10,2013-06-18 10:18:00,
2013-06-18 03:33:00,53.2,50.0,29.96,North,349,0.0,0.0,88,0.00,,,0.00,0,weatherlink.com 1.10,2013-06-18 10:33:00,
2013-06-18 03:48:00,52.4,49.0,29.96,North,5,0.0,0.0,88,0.00,,,0.00,0,weatherlink.com 1.10,2013-06-18 10:48:00,
2013-06-18 04:03:00,52.1,49.0,29.96,North,5,0.0,0.0,89,0.00,,,0.00,0,weatherlink.com 1.10,2013-06-18 11:03:00,
2013-06-18 04:18:00,52.3,49.0,29.96,North,349,0.0,0.0,88,0.00,,,0.00,0,weatherlink.com 1.10,2013-06-18 11:18:00,
2013-06-18 04:33:00,52.2,49.0,29.96,North,5,0.0,0.0,87,0.00,,,0.00,0,weatherlink.com 1.10,2013-06-18 11:33:00,
2013-06-18 04:48:00,51.3,48.0,29.96,North,5,0.0,0.0,87,0.00,,,0.00,0,weatherlink.com 1.10,2013-06-18 11:48:00,
2013-06-18 05:03:00,49.8,47.0,29.97,North,5,0.0,0.0,90,0.00,,,0.00,0,weatherlink.com 1.10,2013-06-18 12:03:00,
2013-06-18 05:18:00,49.2,47.0,29.97,North,5,0.0,0.0,91,0.00,,,0.00,0,weatherlink.com 1.10,2013-06-18 12:18:00,
2013-06-18 05:33:00,48.4,46.0,29.97,North,5,0.0,0.0,92,0.00,,,0.00,0,weatherlink.com 1.10,2013-06-18 12:33:00,
2013-06-18 05:48:00,48.3,46.0,29.97,North,5,0.0,0.0,93,0.00,,,0.00,0,weatherlink.com 1.10,2013-06-18 12:48:00,
2013-06-18 06:03:00,48.8,47.0,29.97,North,5,0.0,0.0,94,0.00,,,0.00,14,weatherlink.com 1.10,2013-06-18 13:03:00,
2013-06-18 06:19:00,49.0,47.0,29.98,North,5,0.0,0.0,92,0.00,,,0.00,23,weatherlink.com 1.10,2013-06-18 13:19:00,
2013-06-18 06:34:00,49.4,48.0,29.98,North,5,0.0,0.0,93,0.00,,,0.00,54,weatherlink.com 1.10,2013-06-18 13:34:00,
2013-06-18 06:49:00,51.7,50.0,29.98,North,5,0.0,0.0,92,0.00,,,0.00,98,weatherlink.com 1.10,2013-06-18 13:49:00,
2013-06-18 07:04:00,53.6,50.0,29.98,North,5,0.0,0.0,88,0.00,,,0.00,151,weatherlink.com 1.10,2013-06-18 14:04:00,
2013-06-18 07:19:00,55.9,52.0,29.98,North,5,0.0,0.0,85,0.00,,,0.00,53,weatherlink.com 1.10,2013-06-18 14:19:00,
2013-06-18 07:34:00,57.3,53.0,29.98,North,5,0.0,0.0,84,0.00,,,0.00,51,weatherlink.com 1.10,2013-06-18 14:34:00,
2013-06-18 07:49:00,59.3,53.0,29.98,North,5,0.0,0.0,80,0.00,,,0.00,295,weatherlink.com 1.10,2013-06-18 14:49:00,
2013-06-18 08:04:00,60.1,52.0,29.98,North,349,0.0,0.0,74,0.00,,,0.00,362,weatherlink.com 1.10,2013-06-18 15:04:00,
2013-06-18 08:19:00,63.5,50.0,29.98,North,5,0.0,0.0,62,0.00,,,0.00,425,weatherlink.com 1.10,2013-06-18 15:19:00,
2013-06-18 08:34:00,65.5,50.0,29.97,North,5,0.0,0.0,57,0.00,,,0.00,473,weatherlink.com 1.10,2013-06-18 15:34:00,
2013-06-18 08:49:00,65.9,49.0,29.97,North,5,0.0,0.0,55,0.00,,,0.00,527,weatherlink.com 1.10,2013-06-18 15:49:00,
2013-06-18 09:04:00,67.0,49.0,29.98,North,5,0.0,0.0,52,0.00,,,0.00,587,weatherlink.com 1.10,2013-06-18 16:04:00,
2013-06-18 09:19:00,68.1,48.0,29.97,North,5,0.0,0.0,49,0.00,,,0.00,645,weatherlink.com 1.10,2013-06-18 16:19:00,
2013-06-18 09:34:00,69.9,50.0,29.97,North,5,0.0,0.0,49,0.00,,,0.00,411,weatherlink.com 1.10,2013-06-18 16:34:00,
2013-06-18 09:49:00,68.4,48.0,29.97,North,350,0.0,0.0,49,0.00,,,0.00,323,weatherlink.com 1.10,2013-06-18 16:49:00,
2013-06-18 10:04:00,67.9,48.0,29.97,North,5,0.0,0.0,50,0.00,,,0.00,396,weatherlink.com 1.10,2013-06-18 17:04:00,
2013-06-18 10:19:00,69.9,49.0,29.97,North,5,0.0,0.0,48,0.00,,,0.00,768,weatherlink.com 1.10,2013-06-18 17:19:00,
2013-06-18 10:34:00,69.8,49.0,29.97,North,350,0.0,0.0,47,0.00,,,0.00,378,weatherlink.com 1.10,2013-06-18 17:34:00,
2013-06-18 10:49:00,70.0,49.0,29.96,North,5,0.0,0.0,48,0.00,,,0.00,404,weatherlink.com 1.10,2013-06-18 17:49:00,
2013-06-18 11:04:00,72.0,48.0,29.96,North,349,0.0,0.0,43,0.00,,,0.00,780,weatherlink.com 1.10,2013-06-18 18:04:00,
2013-06-18 11:19:00,73.3,51.0,29.97,North,5,0.0,0.0,45,0.00,,,0.00,918,weatherlink.com 1.10,2013-06-18 18:19:00,
2013-06-18 11:34:00,72.1,48.0,29.97,North,5,0.0,0.0,42,0.00,,,0.00,121,weatherlink.com 1.10,2013-06-18 18:34:00,
2013-06-18 11:50:00,73.0,49.0,29.96,North,5,0.0,0.0,43,0.00,,,0.00,148,weatherlink.com 1.10,2013-06-18 18:50:00,
2013-06-18 12:05:00,73.2,47.0,29.96,North,5,0.0,0.0,40,0.00,,,0.00,132,weatherlink.com 1.10,2013-06-18 19:05:00,
2013-06-18 12:20:00,72.7,51.0,29.96,North,5,0.0,0.0,47,0.00,,,0.00,889,weatherlink.com 1.10,2013-06-18 19:20:00,
2013-06-18 12:35:00,71.4,51.0,29.95,NNW,348,0.0,0.0,49,0.00,,,0.00,1013,weatherlink.com 1.10,2013-06-18 19:35:00,
2013-06-18 12:50:00,70.7,52.0,29.96,North,5,0.0,0.0,51,0.00,,,0.00,942,weatherlink.com 1.10,2013-06-18 19:50:00,
2013-06-18 13:05:00,72.9,50.0,29.95,North,5,0.0,0.0,45,0.00,,,0.00,120,weatherlink.com 1.10,2013-06-18 20:05:00,
2013-06-18 13:20:00,73.2,52.0,29.95,North,350,0.0,0.0,47,0.00,,,0.00,202,weatherlink.com 1.10,2013-06-18 20:20:00,
2013-06-18 13:35:00,71.9,51.0,29.94,North,5,0.0,0.0,48,0.00,,,0.00,1004,weatherlink.com 1.10,2013-06-18 20:35:00,
2013-06-18 13:50:00,72.7,53.0,29.95,North,5,0.0,0.0,50,0.00,,,0.00,998,weatherlink.com 1.10,2013-06-18 20:50:00,
2013-06-18 14:05:00,72.4,52.0,29.94,NNW,348,0.0,0.0,49,0.00,,,0.00,979,weatherlink.com 1.10,2013-06-18 21:05:00,
2013-06-18 14:20:00,72.0,51.0,29.95,North,5,0.0,0.0,48,0.00,,,0.00,962,weatherlink.com 1.10,2013-06-18 21:20:00,
2013-06-18 14:35:00,71.7,52.0,29.95,North,5,0.0,0.0,50,0.00,,,0.00,947,weatherlink.com 1.10,2013-06-18 21:35:00,
2013-06-18 14:50:00,71.7,52.0,29.94,North,360,0.0,0.0,50,0.00,,,0.00,925,weatherlink.com 1.10,2013-06-18 21:50:00,
2013-06-18 15:05:00,71.4,51.0,29.94,North,5,0.0,0.0,49,0.00,,,0.00,896,weatherlink.com 1.10,2013-06-18 22:05:00,
2013-06-18 15:20:00,71.2,52.0,29.94,North,349,0.0,0.0,50,0.00,,,0.00,874,weatherlink.com 1.10,2013-06-18 22:20:00,
2013-06-18 15:35:00,71.0,51.0,29.94,North,5,0.0,0.0,50,0.00,,,0.00,831,weatherlink.com 1.10,2013-06-18 22:35:00,
2013-06-18 15:50:00,70.9,52.0,29.93,North,5,0.0,0.0,52,0.00,,,0.00,798,weatherlink.com 1.10,2013-06-18 22:50:00,
2013-06-18 16:05:00,70.2,51.0,29.93,North,5,0.0,0.0,51,0.00,,,0.00,745,weatherlink.com 1.10,2013-06-18 23:05:00,
2013-06-18 16:20:00,69.8,52.0,29.93,North,5,0.0,0.0,53,0.00,,,0.00,728,weatherlink.com 1.10,2013-06-18 23:20:00,
2013-06-18 16:35:00,69.8,51.0,29.93,North,5,0.0,0.0,51,0.00,,,0.00,585,weatherlink.com 1.10,2013-06-18 23:35:00,
2013-06-18 16:50:00,69.2,51.0,29.93,North,5,0.0,0.0,52,0.00,,,0.00,652,weatherlink.com 1.10,2013-06-18 23:50:00,
2013-06-18 17:05:00,68.8,51.0,29.93,North,5,0.0,0.0,53,0.00,,,0.00,555,weatherlink.com 1.10,2013-06-19 00:05:00,
2013-06-18 17:20:00,67.9,50.0,29.93,North,5,0.0,0.0,54,0.00,,,0.00,425,weatherlink.com 1.10,2013-06-19 00:20:00,
2013-06-18 17:35:00,67.8,52.0,29.92,North,5,0.0,0.0,57,0.00,,,0.00,396,weatherlink.com 1.10,2013-06-19 00:35:00,
2013-06-18 17:50:00,68.6,52.0,29.92,North,5,0.0,0.0,55,0.00,,,0.00,334,weatherlink.com 1.10,2013-06-19 00:50:00,
2013-06-18 18:05:00,68.4,52.0,29.92,North,5,0.0,0.0,56,0.00,,,0.00,294,weatherlink.com 1.10,2013-06-19 01:05:00,
2013-06-18 18:20:00,67.8,51.0,29.91,North,5,0.0,0.0,56,0.00,,,0.00,255,weatherlink.com 1.10,2013-06-19 01:20:00,
2013-06-18 18:35:00,67.8,51.0,29.91,North,5,0.0,0.0,56,0.00,,,0.00,211,weatherlink.com 1.10,2013-06-19 01:35:00,
2013-06-18 18:50:00,67.4,51.0,29.91,North,5,0.0,0.0,56,0.00,,,0.00,183,weatherlink.com 1.10,2013-06-19 01:50:00,
2013-06-18 19:05:00,66.8,49.0,29.91,North,5,0.0,0.0,54,0.00,,,0.00,179,weatherlink.com 1.10,2013-06-19 02:05:00,
2013-06-18 19:20:00,66.2,49.0,29.91,North,5,0.0,0.0,54,0.00,,,0.00,137,weatherlink.com 1.10,2013-06-19 02:20:00,
2013-06-18 19:35:00,65.2,48.0,29.91,North,5,0.0,0.0,54,0.00,,,0.00,83,weatherlink.com 1.10,2013-06-19 02:35:00,
2013-06-18 19:50:00,64.0,49.0,29.92,North,5,0.0,0.0,59,0.00,,,0.00,18,weatherlink.com 1.10,2013-06-19 02:50:00,
2013-06-18 20:05:00,62.9,50.0,29.92,North,5,0.0,0.0,62,0.00,,,0.00,14,weatherlink.com 1.10,2013-06-19 03:05:00,
2013-06-18 20:20:00,62.0,50.0,29.92,North,350,0.0,0.0,64,0.00,,,0.00,9,weatherlink.com 1.10,2013-06-19 03:20:00,
2013-06-18 20:35:00,61.0,49.0,29.93,North,5,0.0,0.0,66,0.00,,,0.00,5,weatherlink.com 1.10,2013-06-19 03:35:00,
2013-06-18 20:50:00,59.9,49.0,29.93,North,5,0.0,0.0,68,0.00,,,0.00,0,weatherlink.com 1.10,2013-06-19 03:50:00,
2013-06-18 21:05:00,59.3,49.0,29.93,North,5,0.0,0.0,68,0.00,,,0.00,0,weatherlink.com 1.10,2013-06-19 04:05:00,
2013-06-18 21:20:00,59.0,48.0,29.94,North,5,0.0,0.0,68,0.00,,,0.00,0,weatherlink.com 1.10,2013-06-19 04:20:00,
2013-06-18 21:35:00,58.7,48.0,29.94,North,5,0.0,0.0,68,0.00,,,0.00,0,weatherlink.com 1.10,2013-06-19 04:35:00,
2013-06-18 21:50:00,58.5,47.0,29.95,North,5,0.0,0.0,67,0.00,,,0.00,0,weatherlink.com 1.10,2013-06-19 04:50:00,
2013-06-18 22:05:00,58.1,48.0,29.96,North,5,0.0,0.0,68,0.00,,,0.00,0,weatherlink.com 1.10,2013-06-19 05:05:00,
2013-06-18 22:20:00,57.3,47.0,29.96,North,5,0.0,0.0,69,0.00,,,0.00,0,weatherlink.com 1.10,2013-06-19 05:20:00,
2013-06-18 22:35:00,56.5,47.0,29.97,North,350,0.0,0.0,70,0.00,,,0.00,0,weatherlink.com 1.10,2013-06-19 05:35:00,
2013-06-18 22:50:00,55.6,47.0,29.97,North,350,0.0,0.0,72,0.00,,,0.00,0,weatherlink.com 1.10,2013-06-19 05:50:00,
2013-06-18 23:05:00,54.3,47.0,29.97,North,5,0.0,0.0,75,0.00,,,0.00,0,weatherlink.com 1.10,2013-06-19 06:05:00,
2013-06-18 23:20:00,54.2,46.0,29.97,North,5,0.0,0.0,74,0.00,,,0.00,0,weatherlink.com 1.10,2013-06-19 06:20:00,
2013-06-18 23:35:00,53.6,46.0,29.97,North,5,0.0,0.0,75,0.00,,,0.00,0,weatherlink.com 1.10,2013-06-19 06:35:00,
2013-06-18 23:50:00,52.7,46.0,29.97,North,350,0.0,0.0,77,0.00,,,0.00,0,weatherlink.com 1.10,2013-06-19 06:50:00,